sensor_id;sensor_type;location;lat;lon;timestamp;P1;durP1;ratioP1;P2;durP2;ratioP2
22679;SDS011;11507;44.858;10.374;2023-08-31T00:01:11;2.35;;;1.08;;
22679;SDS011;11507;44.858;10.374;2023-08-31T00:03:37;2.30;;;1.08;;
22679;SDS011;11507;44.858;10.374;2023-08-31T00:06:03;2.25;;;0.98;;
22679;SDS011;11507;44.858;10.374;2023-08-31T00:08:34;3.55;;;1.20;;
22679;SDS011;11507;44.858;10.374;2023-08-31T00:11:00;2.35;;;1.15;;
22679;SDS011;11507;44.858;10.374;2023-08-31T00:13:27;2.40;;;1.00;;
22679;SDS011;11507;44.858;10.374;2023-08-31T00:15:56;5.30;;;1.30;;
22679;SDS011;11507;44.858;10.374;2023-08-31T00:18:23;3.42;;;1.10;;
22679;SDS011;11507;44.858;10.374;2023-08-31T00:20:50;3.15;;;0.90;;
22679;SDS011;11507;44.858;10.374;2023-08-31T00:23:17;3.67;;;1.10;;
22679;SDS011;11507;44.858;10.374;2023-08-31T00:25:44;1.92;;;0.98;;
22679;SDS011;11507;44.858;10.374;2023-08-31T00:28:10;3.33;;;1.20;;
22679;SDS011;11507;44.858;10.374;2023-08-31T00:30:36;2.70;;;1.10;;
22679;SDS011;11507;44.858;10.374;2023-08-31T00:33:03;2.67;;;1.02;;
22679;SDS011;11507;44.858;10.374;2023-08-31T00:35:29;4.05;;;1.10;;
22679;SDS011;11507;44.858;10.374;2023-08-31T00:37:56;5.03;;;1.10;;
22679;SDS011;11507;44.858;10.374;2023-08-31T00:40:25;2.60;;;0.98;;
22679;SDS011;11507;44.858;10.374;2023-08-31T00:42:51;3.15;;;1.13;;
22679;SDS011;11507;44.858;10.374;2023-08-31T00:45:18;4.43;;;1.30;;
22679;SDS011;11507;44.858;10.374;2023-08-31T00:47:45;3.22;;;1.33;;
22679;SDS011;11507;44.858;10.374;2023-08-31T00:50:12;5.72;;;1.58;;
22679;SDS011;11507;44.858;10.374;2023-08-31T00:52:40;2.92;;;1.42;;
22679;SDS011;11507;44.858;10.374;2023-08-31T00:55:08;4.13;;;1.40;;
22679;SDS011;11507;44.858;10.374;2023-08-31T00:57:35;3.80;;;1.35;;
22679;SDS011;11507;44.858;10.374;2023-08-31T01:00:02;2.60;;;1.45;;
22679;SDS011;11507;44.858;10.374;2023-08-31T01:02:53;3.47;;;1.30;;
22679;SDS011;11507;44.858;10.374;2023-08-31T01:05:32;4.00;;;1.70;;
22679;SDS011;11507;44.858;10.374;2023-08-31T01:13:29;2.85;;;1.60;;
22679;SDS011;11507;44.858;10.374;2023-08-31T01:15:59;2.97;;;1.60;;
22679;SDS011;11507;44.858;10.374;2023-08-31T01:18:29;4.97;;;1.60;;
22679;SDS011;11507;44.858;10.374;2023-08-31T01:21:09;3.97;;;1.60;;
22679;SDS011;11507;44.858;10.374;2023-08-31T01:23:54;3.65;;;1.75;;
22679;SDS011;11507;44.858;10.374;2023-08-31T01:26:22;3.17;;;1.70;;
22679;SDS011;11507;44.858;10.374;2023-08-31T01:28:49;3.55;;;1.83;;
22679;SDS011;11507;44.858;10.374;2023-08-31T01:31:16;3.15;;;1.58;;
22679;SDS011;11507;44.858;10.374;2023-08-31T01:33:42;4.25;;;1.85;;
22679;SDS011;11507;44.858;10.374;2023-08-31T01:39:06;3.15;;;1.70;;
22679;SDS011;11507;44.858;10.374;2023-08-31T01:41:46;6.18;;;1.90;;
22679;SDS011;11507;44.858;10.374;2023-08-31T01:44:16;4.93;;;2.28;;
22679;SDS011;11507;44.858;10.374;2023-08-31T01:46:52;3.58;;;2.05;;
22679;SDS011;11507;44.858;10.374;2023-08-31T01:49:23;4.15;;;2.10;;
22679;SDS011;11507;44.858;10.374;2023-08-31T01:51:49;4.50;;;1.90;;
22679;SDS011;11507;44.858;10.374;2023-08-31T01:54:15;6.43;;;2.20;;
22679;SDS011;11507;44.858;10.374;2023-08-31T01:56:41;3.53;;;2.00;;
22679;SDS011;11507;44.858;10.374;2023-08-31T01:59:07;3.92;;;2.28;;
22679;SDS011;11507;44.858;10.374;2023-08-31T02:01:33;3.75;;;2.30;;
22679;SDS011;11507;44.858;10.374;2023-08-31T02:03:59;4.55;;;2.35;;
22679;SDS011;11507;44.858;10.374;2023-08-31T02:06:26;3.95;;;2.40;;
22679;SDS011;11507;44.858;10.374;2023-08-31T02:08:52;4.78;;;2.50;;
22679;SDS011;11507;44.858;10.374;2023-08-31T02:11:18;6.15;;;2.25;;
22679;SDS011;11507;44.858;10.374;2023-08-31T02:13:44;4.15;;;2.40;;
22679;SDS011;11507;44.858;10.374;2023-08-31T02:16:10;4.47;;;2.20;;
22679;SDS011;11507;44.858;10.374;2023-08-31T02:18:36;3.53;;;2.00;;
22679;SDS011;11507;44.858;10.374;2023-08-31T02:21:02;5.60;;;2.00;;
22679;SDS011;11507;44.858;10.374;2023-08-31T02:23:30;4.22;;;1.95;;
22679;SDS011;11507;44.858;10.374;2023-08-31T02:25:56;4.55;;;2.05;;
22679;SDS011;11507;44.858;10.374;2023-08-31T02:28:22;4.95;;;2.28;;
22679;SDS011;11507;44.858;10.374;2023-08-31T02:30:57;6.70;;;2.60;;
22679;SDS011;11507;44.858;10.374;2023-08-31T02:33:24;5.40;;;2.80;;
22679;SDS011;11507;44.858;10.374;2023-08-31T02:35:50;5.43;;;2.40;;
22679;SDS011;11507;44.858;10.374;2023-08-31T02:38:16;3.88;;;2.30;;
22679;SDS011;11507;44.858;10.374;2023-08-31T02:40:45;4.07;;;2.25;;
22679;SDS011;11507;44.858;10.374;2023-08-31T02:43:11;3.55;;;2.17;;
22679;SDS011;11507;44.858;10.374;2023-08-31T02:45:38;3.22;;;2.10;;
22679;SDS011;11507;44.858;10.374;2023-08-31T02:48:06;4.80;;;2.00;;
22679;SDS011;11507;44.858;10.374;2023-08-31T02:50:35;3.47;;;2.00;;
22679;SDS011;11507;44.858;10.374;2023-08-31T02:53:01;3.47;;;2.10;;
22679;SDS011;11507;44.858;10.374;2023-08-31T02:55:27;4.53;;;2.40;;
22679;SDS011;11507;44.858;10.374;2023-08-31T02:57:53;3.42;;;1.77;;
22679;SDS011;11507;44.858;10.374;2023-08-31T03:00:19;4.00;;;1.85;;
22679;SDS011;11507;44.858;10.374;2023-08-31T03:02:48;3.70;;;2.00;;
22679;SDS011;11507;44.858;10.374;2023-08-31T03:05:17;3.35;;;1.80;;
22679;SDS011;11507;44.858;10.374;2023-08-31T03:07:43;4.85;;;2.55;;
22679;SDS011;11507;44.858;10.374;2023-08-31T03:10:11;3.90;;;2.15;;
22679;SDS011;11507;44.858;10.374;2023-08-31T03:12:37;4.03;;;2.50;;
22679;SDS011;11507;44.858;10.374;2023-08-31T03:15:04;4.10;;;2.05;;
22679;SDS011;11507;44.858;10.374;2023-08-31T03:17:32;4.03;;;2.30;;
22679;SDS011;11507;44.858;10.374;2023-08-31T03:19:58;3.65;;;2.08;;
22679;SDS011;11507;44.858;10.374;2023-08-31T03:22:24;7.22;;;3.08;;
22679;SDS011;11507;44.858;10.374;2023-08-31T03:24:49;4.75;;;2.67;;
22679;SDS011;11507;44.858;10.374;2023-08-31T03:27:15;5.05;;;3.15;;
22679;SDS011;11507;44.858;10.374;2023-08-31T03:29:43;4.97;;;2.70;;
22679;SDS011;11507;44.858;10.374;2023-08-31T03:32:08;3.80;;;2.60;;
22679;SDS011;11507;44.858;10.374;2023-08-31T03:34:35;5.50;;;2.97;;
22679;SDS011;11507;44.858;10.374;2023-08-31T03:37:01;4.88;;;3.28;;
22679;SDS011;11507;44.858;10.374;2023-08-31T03:39:28;4.85;;;3.17;;
22679;SDS011;11507;44.858;10.374;2023-08-31T03:41:54;4.50;;;2.58;;
22679;SDS011;11507;44.858;10.374;2023-08-31T03:44:20;5.38;;;3.30;;
22679;SDS011;11507;44.858;10.374;2023-08-31T03:46:48;4.85;;;2.97;;
22679;SDS011;11507;44.858;10.374;2023-08-31T03:49:14;5.63;;;3.45;;
22679;SDS011;11507;44.858;10.374;2023-08-31T03:51:40;4.35;;;3.20;;
22679;SDS011;11507;44.858;10.374;2023-08-31T03:54:06;7.68;;;4.00;;
22679;SDS011;11507;44.858;10.374;2023-08-31T03:56:33;6.60;;;3.53;;
22679;SDS011;11507;44.858;10.374;2023-08-31T03:59:02;5.22;;;3.75;;
22679;SDS011;11507;44.858;10.374;2023-08-31T04:01:30;5.70;;;3.40;;
22679;SDS011;11507;44.858;10.374;2023-08-31T04:03:57;7.38;;;3.67;;
22679;SDS011;11507;44.858;10.374;2023-08-31T04:06:22;5.65;;;3.65;;
22679;SDS011;11507;44.858;10.374;2023-08-31T04:08:48;9.82;;;3.70;;
22679;SDS011;11507;44.858;10.374;2023-08-31T04:11:14;6.28;;;3.60;;
22679;SDS011;11507;44.858;10.374;2023-08-31T04:13:40;5.35;;;3.50;;
22679;SDS011;11507;44.858;10.374;2023-08-31T04:16:07;6.82;;;3.90;;
22679;SDS011;11507;44.858;10.374;2023-08-31T04:18:33;8.02;;;3.55;;
22679;SDS011;11507;44.858;10.374;2023-08-31T04:20:59;4.82;;;3.38;;
22679;SDS011;11507;44.858;10.374;2023-08-31T04:23:28;8.73;;;3.70;;
22679;SDS011;11507;44.858;10.374;2023-08-31T04:25:54;5.68;;;3.80;;
22679;SDS011;11507;44.858;10.374;2023-08-31T04:28:21;6.40;;;3.80;;
22679;SDS011;11507;44.858;10.374;2023-08-31T04:30:47;5.30;;;3.70;;
22679;SDS011;11507;44.858;10.374;2023-08-31T04:33:14;8.02;;;4.45;;
22679;SDS011;11507;44.858;10.374;2023-08-31T04:35:40;6.00;;;4.28;;
22679;SDS011;11507;44.858;10.374;2023-08-31T04:38:06;7.70;;;5.00;;
22679;SDS011;11507;44.858;10.374;2023-08-31T04:40:32;8.32;;;4.57;;
22679;SDS011;11507;44.858;10.374;2023-08-31T04:42:58;7.20;;;4.60;;
22679;SDS011;11507;44.858;10.374;2023-08-31T04:45:24;7.05;;;5.00;;
22679;SDS011;11507;44.858;10.374;2023-08-31T04:47:50;8.98;;;5.00;;
22679;SDS011;11507;44.858;10.374;2023-08-31T04:50:16;8.30;;;5.80;;
22679;SDS011;11507;44.858;10.374;2023-08-31T04:52:42;10.02;;;5.75;;
22679;SDS011;11507;44.858;10.374;2023-08-31T04:55:08;7.88;;;5.82;;
22679;SDS011;11507;44.858;10.374;2023-08-31T04:57:36;7.95;;;4.75;;
22679;SDS011;11507;44.858;10.374;2023-08-31T05:00:02;7.45;;;5.90;;
22679;SDS011;11507;44.858;10.374;2023-08-31T05:02:28;8.82;;;5.63;;
22679;SDS011;11507;44.858;10.374;2023-08-31T05:04:54;7.25;;;5.47;;
22679;SDS011;11507;44.858;10.374;2023-08-31T05:07:20;7.85;;;5.22;;
22679;SDS011;11507;44.858;10.374;2023-08-31T05:09:46;9.50;;;5.82;;
22679;SDS011;11507;44.858;10.374;2023-08-31T05:12:12;8.73;;;4.93;;
22679;SDS011;11507;44.858;10.374;2023-08-31T05:14:38;9.63;;;5.55;;
22679;SDS011;11507;44.858;10.374;2023-08-31T05:17:05;7.53;;;5.07;;
22679;SDS011;11507;44.858;10.374;2023-08-31T05:19:31;5.47;;;4.22;;
22679;SDS011;11507;44.858;10.374;2023-08-31T05:21:57;8.23;;;4.78;;
22679;SDS011;11507;44.858;10.374;2023-08-31T05:24:23;8.43;;;5.60;;
22679;SDS011;11507;44.858;10.374;2023-08-31T05:26:49;8.40;;;5.75;;
22679;SDS011;11507;44.858;10.374;2023-08-31T05:29:15;7.45;;;5.68;;
22679;SDS011;11507;44.858;10.374;2023-08-31T05:31:41;8.30;;;5.88;;
22679;SDS011;11507;44.858;10.374;2023-08-31T05:34:09;6.72;;;5.20;;
22679;SDS011;11507;44.858;10.374;2023-08-31T05:36:35;7.85;;;5.80;;
22679;SDS011;11507;44.858;10.374;2023-08-31T05:39:01;7.82;;;6.00;;
22679;SDS011;11507;44.858;10.374;2023-08-31T05:41:28;6.90;;;5.32;;
22679;SDS011;11507;44.858;10.374;2023-08-31T05:43:54;9.30;;;5.95;;
22679;SDS011;11507;44.858;10.374;2023-08-31T05:46:19;7.30;;;5.28;;
22679;SDS011;11507;44.858;10.374;2023-08-31T05:48:45;9.60;;;5.95;;
22679;SDS011;11507;44.858;10.374;2023-08-31T05:51:11;8.98;;;6.10;;
22679;SDS011;11507;44.858;10.374;2023-08-31T05:53:37;8.27;;;5.97;;
22679;SDS011;11507;44.858;10.374;2023-08-31T05:56:03;8.05;;;5.82;;
22679;SDS011;11507;44.858;10.374;2023-08-31T05:58:32;8.50;;;6.40;;
22679;SDS011;11507;44.858;10.374;2023-08-31T06:01:00;10.93;;;6.57;;
22679;SDS011;11507;44.858;10.374;2023-08-31T06:03:27;9.98;;;5.72;;
22679;SDS011;11507;44.858;10.374;2023-08-31T06:05:54;6.50;;;4.68;;
22679;SDS011;11507;44.858;10.374;2023-08-31T06:08:24;8.00;;;5.65;;
22679;SDS011;11507;44.858;10.374;2023-08-31T06:10:50;10.07;;;5.43;;
22679;SDS011;11507;44.858;10.374;2023-08-31T06:13:16;10.13;;;4.82;;
22679;SDS011;11507;44.858;10.374;2023-08-31T06:15:42;6.38;;;4.22;;
22679;SDS011;11507;44.858;10.374;2023-08-31T06:18:09;6.95;;;4.68;;
22679;SDS011;11507;44.858;10.374;2023-08-31T06:20:35;8.55;;;4.93;;
22679;SDS011;11507;44.858;10.374;2023-08-31T06:23:02;7.47;;;4.90;;
22679;SDS011;11507;44.858;10.374;2023-08-31T06:25:28;6.18;;;3.90;;
22679;SDS011;11507;44.858;10.374;2023-08-31T06:27:54;5.28;;;3.45;;
22679;SDS011;11507;44.858;10.374;2023-08-31T06:30:19;7.18;;;3.40;;
22679;SDS011;11507;44.858;10.374;2023-08-31T06:32:46;7.95;;;3.25;;
22679;SDS011;11507;44.858;10.374;2023-08-31T06:35:13;4.95;;;3.10;;
22679;SDS011;11507;44.858;10.374;2023-08-31T06:37:41;7.35;;;3.10;;
22679;SDS011;11507;44.858;10.374;2023-08-31T06:40:07;6.45;;;3.22;;
22679;SDS011;11507;44.858;10.374;2023-08-31T06:42:37;6.18;;;2.95;;
22679;SDS011;11507;44.858;10.374;2023-08-31T06:45:05;5.28;;;2.75;;
22679;SDS011;11507;44.858;10.374;2023-08-31T06:47:32;6.55;;;3.22;;
22679;SDS011;11507;44.858;10.374;2023-08-31T06:49:59;5.10;;;2.90;;
22679;SDS011;11507;44.858;10.374;2023-08-31T06:52:25;8.40;;;3.67;;
22679;SDS011;11507;44.858;10.374;2023-08-31T06:54:54;8.98;;;4.10;;
22679;SDS011;11507;44.858;10.374;2023-08-31T06:57:23;4.88;;;3.58;;
22679;SDS011;11507;44.858;10.374;2023-08-31T06:59:49;7.28;;;3.97;;
22679;SDS011;11507;44.858;10.374;2023-08-31T07:02:15;7.28;;;3.83;;
22679;SDS011;11507;44.858;10.374;2023-08-31T07:04:41;8.20;;;4.47;;
22679;SDS011;11507;44.858;10.374;2023-08-31T07:07:07;7.15;;;5.03;;
22679;SDS011;11507;44.858;10.374;2023-08-31T07:09:40;7.90;;;4.57;;
22679;SDS011;11507;44.858;10.374;2023-08-31T07:12:09;7.07;;;5.05;;
22679;SDS011;11507;44.858;10.374;2023-08-31T07:14:35;6.60;;;4.50;;
22679;SDS011;11507;44.858;10.374;2023-08-31T07:17:02;8.13;;;4.55;;
22679;SDS011;11507;44.858;10.374;2023-08-31T07:19:28;7.85;;;4.82;;
22679;SDS011;11507;44.858;10.374;2023-08-31T07:21:53;6.57;;;4.10;;
22679;SDS011;11507;44.858;10.374;2023-08-31T07:24:23;8.65;;;5.43;;
22679;SDS011;11507;44.858;10.374;2023-08-31T07:26:49;7.47;;;5.28;;
22679;SDS011;11507;44.858;10.374;2023-08-31T07:29:15;7.93;;;5.53;;
22679;SDS011;11507;44.858;10.374;2023-08-31T07:31:41;10.32;;;5.25;;
22679;SDS011;11507;44.858;10.374;2023-08-31T07:34:07;8.77;;;5.35;;
22679;SDS011;11507;44.858;10.374;2023-08-31T07:36:33;8.93;;;5.75;;
22679;SDS011;11507;44.858;10.374;2023-08-31T07:38:59;7.22;;;5.43;;
22679;SDS011;11507;44.858;10.374;2023-08-31T07:41:25;8.40;;;5.75;;
22679;SDS011;11507;44.858;10.374;2023-08-31T07:56:16;7.45;;;4.28;;
22679;SDS011;11507;44.858;10.374;2023-08-31T07:58:42;6.63;;;5.07;;
22679;SDS011;11507;44.858;10.374;2023-08-31T08:01:09;7.10;;;4.35;;
22679;SDS011;11507;44.858;10.374;2023-08-31T08:03:35;6.43;;;3.65;;
22679;SDS011;11507;44.858;10.374;2023-08-31T08:06:01;7.82;;;4.53;;
22679;SDS011;11507;44.858;10.374;2023-08-31T08:08:26;8.18;;;4.75;;
22679;SDS011;11507;44.858;10.374;2023-08-31T08:10:53;6.75;;;5.05;;
22679;SDS011;11507;44.858;10.374;2023-08-31T08:13:19;7.82;;;4.70;;
22679;SDS011;11507;44.858;10.374;2023-08-31T08:15:45;8.38;;;6.32;;
22679;SDS011;11507;44.858;10.374;2023-08-31T08:18:11;8.05;;;5.40;;
22679;SDS011;11507;44.858;10.374;2023-08-31T08:20:37;11.52;;;6.70;;
22679;SDS011;11507;44.858;10.374;2023-08-31T08:23:03;10.32;;;6.43;;
22679;SDS011;11507;44.858;10.374;2023-08-31T08:25:30;7.15;;;5.97;;
22679;SDS011;11507;44.858;10.374;2023-08-31T08:27:56;7.75;;;6.35;;
22679;SDS011;11507;44.858;10.374;2023-08-31T08:30:21;8.85;;;6.22;;
22679;SDS011;11507;44.858;10.374;2023-08-31T08:32:47;10.15;;;6.20;;
22679;SDS011;11507;44.858;10.374;2023-08-31T08:35:13;9.68;;;7.07;;
22679;SDS011;11507;44.858;10.374;2023-08-31T08:37:39;12.23;;;6.88;;
22679;SDS011;11507;44.858;10.374;2023-08-31T08:40:05;9.63;;;6.88;;
22679;SDS011;11507;44.858;10.374;2023-08-31T08:42:32;9.48;;;7.05;;
22679;SDS011;11507;44.858;10.374;2023-08-31T08:45:04;9.55;;;6.38;;
22679;SDS011;11507;44.858;10.374;2023-08-31T08:47:31;11.82;;;6.88;;
22679;SDS011;11507;44.858;10.374;2023-08-31T08:49:58;8.82;;;7.40;;
22679;SDS011;11507;44.858;10.374;2023-08-31T08:52:26;11.18;;;6.75;;
22679;SDS011;11507;44.858;10.374;2023-08-31T08:54:52;9.40;;;6.80;;
22679;SDS011;11507;44.858;10.374;2023-08-31T08:57:19;6.85;;;5.53;;
22679;SDS011;11507;44.858;10.374;2023-08-31T08:59:45;7.20;;;4.82;;
22679;SDS011;11507;44.858;10.374;2023-08-31T09:02:11;10.48;;;5.68;;
22679;SDS011;11507;44.858;10.374;2023-08-31T09:04:37;8.70;;;5.22;;
22679;SDS011;11507;44.858;10.374;2023-08-31T09:07:04;7.60;;;5.07;;
22679;SDS011;11507;44.858;10.374;2023-08-31T09:09:30;7.88;;;3.92;;
22679;SDS011;11507;44.858;10.374;2023-08-31T09:11:56;6.75;;;4.55;;
22679;SDS011;11507;44.858;10.374;2023-08-31T09:14:21;8.02;;;4.85;;
22679;SDS011;11507;44.858;10.374;2023-08-31T09:16:49;6.90;;;5.18;;
22679;SDS011;11507;44.858;10.374;2023-08-31T09:19:19;9.25;;;5.30;;
22679;SDS011;11507;44.858;10.374;2023-08-31T09:21:50;7.00;;;4.80;;
22679;SDS011;11507;44.858;10.374;2023-08-31T09:24:17;9.25;;;5.30;;
22679;SDS011;11507;44.858;10.374;2023-08-31T09:26:44;6.95;;;5.57;;
22679;SDS011;11507;44.858;10.374;2023-08-31T09:29:14;6.68;;;4.72;;
22679;SDS011;11507;44.858;10.374;2023-08-31T09:31:44;5.22;;;3.60;;
22679;SDS011;11507;44.858;10.374;2023-08-31T09:34:10;6.68;;;4.32;;
22679;SDS011;11507;44.858;10.374;2023-08-31T09:36:36;5.72;;;3.97;;
22679;SDS011;11507;44.858;10.374;2023-08-31T09:39:03;5.82;;;3.97;;
22679;SDS011;11507;44.858;10.374;2023-08-31T09:41:30;5.90;;;3.85;;
22679;SDS011;11507;44.858;10.374;2023-08-31T09:43:57;5.80;;;4.35;;
22679;SDS011;11507;44.858;10.374;2023-08-31T09:46:41;7.80;;;4.47;;
22679;SDS011;11507;44.858;10.374;2023-08-31T09:49:08;7.13;;;4.25;;
22679;SDS011;11507;44.858;10.374;2023-08-31T09:51:37;5.50;;;3.78;;
22679;SDS011;11507;44.858;10.374;2023-08-31T09:54:06;5.40;;;4.07;;
22679;SDS011;11507;44.858;10.374;2023-08-31T09:56:35;7.47;;;3.80;;
22679;SDS011;11507;44.858;10.374;2023-08-31T09:59:03;5.72;;;3.35;;
22679;SDS011;11507;44.858;10.374;2023-08-31T10:01:29;4.65;;;3.08;;
22679;SDS011;11507;44.858;10.374;2023-08-31T10:03:55;7.60;;;3.67;;
22679;SDS011;11507;44.858;10.374;2023-08-31T10:06:22;5.90;;;2.95;;
22679;SDS011;11507;44.858;10.374;2023-08-31T10:08:48;5.30;;;2.95;;
22679;SDS011;11507;44.858;10.374;2023-08-31T10:11:14;3.70;;;2.38;;
22679;SDS011;11507;44.858;10.374;2023-08-31T10:13:41;7.15;;;2.55;;
22679;SDS011;11507;44.858;10.374;2023-08-31T10:16:09;4.13;;;2.35;;
22679;SDS011;11507;44.858;10.374;2023-08-31T10:18:36;4.55;;;2.30;;
22679;SDS011;11507;44.858;10.374;2023-08-31T10:21:02;4.78;;;2.97;;
22679;SDS011;11507;44.858;10.374;2023-08-31T10:23:29;4.88;;;2.22;;
22679;SDS011;11507;44.858;10.374;2023-08-31T10:28:21;5.65;;;2.03;;
22679;SDS011;11507;44.858;10.374;2023-08-31T10:31:21;6.53;;;2.67;;
22679;SDS011;11507;44.858;10.374;2023-08-31T10:33:46;5.25;;;2.55;;
22679;SDS011;11507;44.858;10.374;2023-08-31T10:36:33;5.55;;;2.50;;
22679;SDS011;11507;44.858;10.374;2023-08-31T10:39:11;5.15;;;2.40;;
22679;SDS011;11507;44.858;10.374;2023-08-31T10:41:39;4.07;;;2.13;;
22679;SDS011;11507;44.858;10.374;2023-08-31T10:44:18;5.70;;;2.80;;
22679;SDS011;11507;44.858;10.374;2023-08-31T10:46:46;4.95;;;2.45;;
22679;SDS011;11507;44.858;10.374;2023-08-31T10:49:15;6.55;;;2.22;;
22679;SDS011;11507;44.858;10.374;2023-08-31T10:51:45;5.43;;;2.30;;
22679;SDS011;11507;44.858;10.374;2023-08-31T10:54:33;5.50;;;2.03;;
22679;SDS011;11507;44.858;10.374;2023-08-31T10:57:03;4.57;;;2.40;;
22679;SDS011;11507;44.858;10.374;2023-08-31T11:02:34;5.32;;;2.10;;
22679;SDS011;11507;44.858;10.374;2023-08-31T11:07:37;4.55;;;1.75;;
22679;SDS011;11507;44.858;10.374;2023-08-31T11:10:24;5.35;;;1.83;;
22679;SDS011;11507;44.858;10.374;2023-08-31T11:12:55;4.72;;;1.67;;
22679;SDS011;11507;44.858;10.374;2023-08-31T11:15:23;4.60;;;1.30;;
22679;SDS011;11507;44.858;10.374;2023-08-31T11:17:52;2.38;;;1.23;;
22679;SDS011;11507;44.858;10.374;2023-08-31T11:20:19;3.13;;;1.13;;
22679;SDS011;11507;44.858;10.374;2023-08-31T11:22:47;2.55;;;1.00;;
22679;SDS011;11507;44.858;10.374;2023-08-31T11:25:18;6.65;;;1.10;;
22679;SDS011;11507;44.858;10.374;2023-08-31T11:27:57;4.68;;;1.98;;
22679;SDS011;11507;44.858;10.374;2023-08-31T11:30:27;3.30;;;1.20;;
22679;SDS011;11507;44.858;10.374;2023-08-31T11:33:01;3.03;;;1.30;;
22679;SDS011;11507;44.858;10.374;2023-08-31T11:35:38;2.70;;;1.10;;
22679;SDS011;11507;44.858;10.374;2023-08-31T11:38:07;3.58;;;1.30;;
22679;SDS011;11507;44.858;10.374;2023-08-31T11:40:33;4.32;;;1.20;;
22679;SDS011;11507;44.858;10.374;2023-08-31T11:42:59;6.00;;;1.10;;
22679;SDS011;11507;44.858;10.374;2023-08-31T11:45:25;2.33;;;1.00;;
22679;SDS011;11507;44.858;10.374;2023-08-31T11:47:52;2.75;;;1.08;;
22679;SDS011;11507;44.858;10.374;2023-08-31T11:50:18;2.38;;;1.17;;
22679;SDS011;11507;44.858;10.374;2023-08-31T11:52:45;2.97;;;1.00;;
22679;SDS011;11507;44.858;10.374;2023-08-31T11:55:12;4.57;;;1.20;;
22679;SDS011;11507;44.858;10.374;2023-08-31T11:57:39;3.08;;;1.23;;
22679;SDS011;11507;44.858;10.374;2023-08-31T12:00:05;5.15;;;1.40;;
22679;SDS011;11507;44.858;10.374;2023-08-31T12:02:35;3.60;;;1.20;;
22679;SDS011;11507;44.858;10.374;2023-08-31T12:05:01;5.53;;;1.45;;
22679;SDS011;11507;44.858;10.374;2023-08-31T12:07:27;2.92;;;1.13;;
22679;SDS011;11507;44.858;10.374;2023-08-31T12:09:53;5.30;;;1.10;;
22679;SDS011;11507;44.858;10.374;2023-08-31T12:12:22;4.55;;;1.88;;
22679;SDS011;11507;44.858;10.374;2023-08-31T12:14:52;5.35;;;1.20;;
22679;SDS011;11507;44.858;10.374;2023-08-31T12:17:18;3.45;;;1.38;;
22679;SDS011;11507;44.858;10.374;2023-08-31T12:19:44;3.45;;;1.52;;
22679;SDS011;11507;44.858;10.374;2023-08-31T12:22:10;5.85;;;1.50;;
22679;SDS011;11507;44.858;10.374;2023-08-31T12:24:39;2.95;;;1.50;;
22679;SDS011;11507;44.858;10.374;2023-08-31T12:27:06;3.72;;;1.20;;
22679;SDS011;11507;44.858;10.374;2023-08-31T12:29:32;3.80;;;1.20;;
22679;SDS011;11507;44.858;10.374;2023-08-31T12:31:58;2.75;;;1.30;;
22679;SDS011;11507;44.858;10.374;2023-08-31T12:34:24;3.72;;;1.55;;
22679;SDS011;11507;44.858;10.374;2023-08-31T12:36:51;3.20;;;1.42;;
22679;SDS011;11507;44.858;10.374;2023-08-31T12:39:17;3.88;;;1.48;;
22679;SDS011;11507;44.858;10.374;2023-08-31T12:41:44;5.40;;;1.50;;
22679;SDS011;11507;44.858;10.374;2023-08-31T12:44:10;3.45;;;1.20;;
22679;SDS011;11507;44.858;10.374;2023-08-31T12:46:36;5.60;;;1.42;;
22679;SDS011;11507;44.858;10.374;2023-08-31T12:49:02;3.85;;;1.48;;
22679;SDS011;11507;44.858;10.374;2023-08-31T12:51:31;5.25;;;1.70;;
22679;SDS011;11507;44.858;10.374;2023-08-31T12:53:58;3.97;;;1.75;;
22679;SDS011;11507;44.858;10.374;2023-08-31T12:56:24;5.22;;;1.85;;
22679;SDS011;11507;44.858;10.374;2023-08-31T12:58:50;3.97;;;1.60;;
22679;SDS011;11507;44.858;10.374;2023-08-31T13:01:18;5.43;;;2.00;;
22679;SDS011;11507;44.858;10.374;2023-08-31T13:03:45;5.07;;;1.65;;
22679;SDS011;11507;44.858;10.374;2023-08-31T13:06:12;4.20;;;1.70;;
22679;SDS011;11507;44.858;10.374;2023-08-31T13:08:39;5.53;;;1.77;;
22679;SDS011;11507;44.858;10.374;2023-08-31T13:11:05;6.05;;;2.05;;
22679;SDS011;11507;44.858;10.374;2023-08-31T13:13:32;7.13;;;2.08;;
22679;SDS011;11507;44.858;10.374;2023-08-31T13:15:59;6.20;;;1.70;;
22679;SDS011;11507;44.858;10.374;2023-08-31T13:18:25;3.97;;;1.63;;
22679;SDS011;11507;44.858;10.374;2023-08-31T13:20:54;4.60;;;1.38;;
22679;SDS011;11507;44.858;10.374;2023-08-31T13:23:21;5.30;;;1.45;;
22679;SDS011;11507;44.858;10.374;2023-08-31T13:25:47;3.15;;;1.50;;
22679;SDS011;11507;44.858;10.374;2023-08-31T13:28:14;4.47;;;1.55;;
22679;SDS011;11507;44.858;10.374;2023-08-31T13:30:40;4.55;;;1.60;;
22679;SDS011;11507;44.858;10.374;2023-08-31T13:33:07;4.57;;;1.52;;
22679;SDS011;11507;44.858;10.374;2023-08-31T13:35:33;5.72;;;1.85;;
22679;SDS011;11507;44.858;10.374;2023-08-31T13:38:01;5.68;;;2.15;;
22679;SDS011;11507;44.858;10.374;2023-08-31T13:40:28;5.53;;;1.65;;
22679;SDS011;11507;44.858;10.374;2023-08-31T13:42:56;7.10;;;1.83;;
22679;SDS011;11507;44.858;10.374;2023-08-31T13:45:24;4.15;;;1.80;;
22679;SDS011;11507;44.858;10.374;2023-08-31T13:47:51;8.80;;;2.00;;
22679;SDS011;11507;44.858;10.374;2023-08-31T13:50:17;4.85;;;1.80;;
22679;SDS011;11507;44.858;10.374;2023-08-31T13:52:43;4.43;;;1.83;;
22679;SDS011;11507;44.858;10.374;2023-08-31T13:55:09;5.85;;;2.05;;
22679;SDS011;11507;44.858;10.374;2023-08-31T13:57:34;5.60;;;2.00;;
22679;SDS011;11507;44.858;10.374;2023-08-31T14:00:01;4.65;;;1.73;;
22679;SDS011;11507;44.858;10.374;2023-08-31T14:02:37;5.57;;;1.92;;
22679;SDS011;11507;44.858;10.374;2023-08-31T14:05:04;6.95;;;2.20;;
22679;SDS011;11507;44.858;10.374;2023-08-31T14:07:38;6.38;;;2.20;;
22679;SDS011;11507;44.858;10.374;2023-08-31T14:10:04;8.90;;;2.00;;
22679;SDS011;11507;44.858;10.374;2023-08-31T14:12:31;5.47;;;1.98;;
22679;SDS011;11507;44.858;10.374;2023-08-31T14:14:57;6.57;;;2.20;;
22679;SDS011;11507;44.858;10.374;2023-08-31T14:17:23;5.32;;;2.40;;
22679;SDS011;11507;44.858;10.374;2023-08-31T14:19:49;4.57;;;1.92;;
22679;SDS011;11507;44.858;10.374;2023-08-31T14:22:16;6.70;;;2.33;;
22679;SDS011;11507;44.858;10.374;2023-08-31T14:24:42;6.80;;;2.30;;
22679;SDS011;11507;44.858;10.374;2023-08-31T14:27:09;5.28;;;1.92;;
22679;SDS011;11507;44.858;10.374;2023-08-31T14:29:36;6.53;;;2.17;;
22679;SDS011;11507;44.858;10.374;2023-08-31T14:32:02;4.63;;;1.98;;
22679;SDS011;11507;44.858;10.374;2023-08-31T14:34:29;5.07;;;2.08;;
22679;SDS011;11507;44.858;10.374;2023-08-31T14:36:57;6.90;;;2.15;;
22679;SDS011;11507;44.858;10.374;2023-08-31T14:39:24;6.72;;;2.45;;
22679;SDS011;11507;44.858;10.374;2023-08-31T14:41:55;4.80;;;2.00;;
22679;SDS011;11507;44.858;10.374;2023-08-31T14:44:22;8.30;;;2.50;;
22679;SDS011;11507;44.858;10.374;2023-08-31T14:46:48;9.38;;;2.10;;
22679;SDS011;11507;44.858;10.374;2023-08-31T14:49:14;6.90;;;2.00;;
22679;SDS011;11507;44.858;10.374;2023-08-31T14:51:40;5.22;;;2.00;;
22679;SDS011;11507;44.858;10.374;2023-08-31T14:54:07;5.82;;;2.10;;
22679;SDS011;11507;44.858;10.374;2023-08-31T14:56:33;5.60;;;2.20;;
22679;SDS011;11507;44.858;10.374;2023-08-31T14:58:59;5.63;;;2.00;;
22679;SDS011;11507;44.858;10.374;2023-08-31T15:01:25;5.95;;;2.20;;
22679;SDS011;11507;44.858;10.374;2023-08-31T15:03:51;6.32;;;1.95;;